sensor_id;sensor_type;location;lat;lon;timestamp;P1;durP1;ratioP1;P2;durP2;ratioP2
11238;SDS011;5677;48.488;13.436;2022-10-31T00:00:56;5.63;;;3.90;;
11238;SDS011;5677;48.488;13.436;2022-10-31T00:03:23;4.93;;;3.90;;
11238;SDS011;5677;48.488;13.436;2022-10-31T00:05:51;5.10;;;4.07;;
11238;SDS011;5677;48.488;13.436;2022-10-31T00:08:18;4.93;;;3.93;;
11238;SDS011;5677;48.488;13.436;2022-10-31T00:10:45;4.57;;;3.83;;
11238;SDS011;5677;48.488;13.436;2022-10-31T00:13:13;4.43;;;3.63;;
11238;SDS011;5677;48.488;13.436;2022-10-31T00:15:40;7.23;;;3.67;;
11238;SDS011;5677;48.488;13.436;2022-10-31T00:18:09;4.70;;;3.97;;
11238;SDS011;5677;48.488;13.436;2022-10-31T00:20:36;6.27;;;4.13;;
11238;SDS011;5677;48.488;13.436;2022-10-31T00:23:04;4.40;;;3.57;;
11238;SDS011;5677;48.488;13.436;2022-10-31T00:25:33;4.53;;;3.80;;
11238;SDS011;5677;48.488;13.436;2022-10-31T00:28:01;4.53;;;4.00;;
11238;SDS011;5677;48.488;13.436;2022-10-31T00:30:28;4.10;;;3.70;;
11238;SDS011;5677;48.488;13.436;2022-10-31T00:32:54;4.30;;;3.90;;
11238;SDS011;5677;48.488;13.436;2022-10-31T00:35:23;4.83;;;4.23;;
11238;SDS011;5677;48.488;13.436;2022-10-31T00:37:49;4.53;;;3.77;;
11238;SDS011;5677;48.488;13.436;2022-10-31T00:40:16;4.33;;;3.83;;
11238;SDS011;5677;48.488;13.436;2022-10-31T00:42:43;4.53;;;3.57;;
11238;SDS011;5677;48.488;13.436;2022-10-31T00:45:10;3.90;;;3.53;;
11238;SDS011;5677;48.488;13.436;2022-10-31T00:47:37;4.13;;;3.70;;
11238;SDS011;5677;48.488;13.436;2022-10-31T00:50:04;4.80;;;3.90;;
11238;SDS011;5677;48.488;13.436;2022-10-31T00:52:33;5.50;;;3.90;;
11238;SDS011;5677;48.488;13.436;2022-10-31T00:55:00;3.90;;;3.50;;
11238;SDS011;5677;48.488;13.436;2022-10-31T00:57:26;4.43;;;3.60;;
11238;SDS011;5677;48.488;13.436;2022-10-31T00:59:53;5.00;;;3.53;;
11238;SDS011;5677;48.488;13.436;2022-10-31T01:02:20;5.23;;;3.90;;
11238;SDS011;5677;48.488;13.436;2022-10-31T01:04:47;4.27;;;3.80;;
11238;SDS011;5677;48.488;13.436;2022-10-31T01:07:13;4.93;;;3.80;;
11238;SDS011;5677;48.488;13.436;2022-10-31T01:09:42;4.83;;;3.87;;
11238;SDS011;5677;48.488;13.436;2022-10-31T01:12:08;4.13;;;3.37;;
11238;SDS011;5677;48.488;13.436;2022-10-31T01:14:35;5.50;;;4.10;;
11238;SDS011;5677;48.488;13.436;2022-10-31T01:17:02;5.03;;;3.53;;
11238;SDS011;5677;48.488;13.436;2022-10-31T01:19:29;4.87;;;4.00;;
11238;SDS011;5677;48.488;13.436;2022-10-31T01:21:55;4.07;;;3.20;;
11238;SDS011;5677;48.488;13.436;2022-10-31T01:24:22;3.53;;;3.23;;
11238;SDS011;5677;48.488;13.436;2022-10-31T01:26:51;4.33;;;3.93;;
11238;SDS011;5677;48.488;13.436;2022-10-31T01:29:17;4.40;;;3.60;;
11238;SDS011;5677;48.488;13.436;2022-10-31T01:31:44;5.43;;;3.77;;
11238;SDS011;5677;48.488;13.436;2022-10-31T01:34:12;4.23;;;3.23;;
11238;SDS011;5677;48.488;13.436;2022-10-31T01:36:40;5.17;;;3.73;;
11238;SDS011;5677;48.488;13.436;2022-10-31T01:39:09;3.70;;;3.30;;
11238;SDS011;5677;48.488;13.436;2022-10-31T01:41:39;4.80;;;4.03;;
11238;SDS011;5677;48.488;13.436;2022-10-31T01:47:13;3.77;;;3.30;;
11238;SDS011;5677;48.488;13.436;2022-10-31T01:49:44;4.60;;;3.53;;
11238;SDS011;5677;48.488;13.436;2022-10-31T01:52:16;5.83;;;4.17;;
11238;SDS011;5677;48.488;13.436;2022-10-31T01:54:48;5.00;;;3.50;;
11238;SDS011;5677;48.488;13.436;2022-10-31T01:57:18;4.83;;;3.90;;
11238;SDS011;5677;48.488;13.436;2022-10-31T01:59:47;5.33;;;3.60;;
11238;SDS011;5677;48.488;13.436;2022-10-31T02:02:18;3.97;;;3.57;;
11238;SDS011;5677;48.488;13.436;2022-10-31T02:04:45;4.20;;;3.30;;
11238;SDS011;5677;48.488;13.436;2022-10-31T02:07:13;4.27;;;3.40;;
11238;SDS011;5677;48.488;13.436;2022-10-31T02:09:45;4.77;;;3.30;;
11238;SDS011;5677;48.488;13.436;2022-10-31T02:12:13;4.43;;;3.40;;
11238;SDS011;5677;48.488;13.436;2022-10-31T02:14:41;4.63;;;3.70;;
11238;SDS011;5677;48.488;13.436;2022-10-31T02:17:08;4.40;;;3.40;;
11238;SDS011;5677;48.488;13.436;2022-10-31T02:19:39;4.27;;;3.50;;
11238;SDS011;5677;48.488;13.436;2022-10-31T02:22:16;4.20;;;3.53;;
11238;SDS011;5677;48.488;13.436;2022-10-31T02:24:58;4.13;;;3.50;;
11238;SDS011;5677;48.488;13.436;2022-10-31T02:27:40;3.67;;;3.27;;
11238;SDS011;5677;48.488;13.436;2022-10-31T02:30:18;3.77;;;3.27;;
11238;SDS011;5677;48.488;13.436;2022-10-31T02:33:01;3.90;;;3.50;;
11238;SDS011;5677;48.488;13.436;2022-10-31T02:35:47;4.57;;;3.63;;
11238;SDS011;5677;48.488;13.436;2022-10-31T02:38:23;3.83;;;3.37;;
11238;SDS011;5677;48.488;13.436;2022-10-31T02:40:58;3.80;;;3.30;;
11238;SDS011;5677;48.488;13.436;2022-10-31T02:43:30;3.97;;;3.43;;
11238;SDS011;5677;48.488;13.436;2022-10-31T02:46:03;3.23;;;2.90;;
11238;SDS011;5677;48.488;13.436;2022-10-31T02:48:39;3.80;;;3.40;;
11238;SDS011;5677;48.488;13.436;2022-10-31T02:51:09;4.00;;;3.60;;
11238;SDS011;5677;48.488;13.436;2022-10-31T02:53:37;3.80;;;3.40;;
11238;SDS011;5677;48.488;13.436;2022-10-31T02:56:05;3.63;;;3.27;;
11238;SDS011;5677;48.488;13.436;2022-10-31T02:58:35;3.60;;;3.00;;
11238;SDS011;5677;48.488;13.436;2022-10-31T03:01:09;4.93;;;3.43;;
11238;SDS011;5677;48.488;13.436;2022-10-31T03:03:47;3.97;;;3.47;;
11238;SDS011;5677;48.488;13.436;2022-10-31T03:06:23;4.30;;;3.30;;
11238;SDS011;5677;48.488;13.436;2022-10-31T03:08:59;3.53;;;3.20;;
11238;SDS011;5677;48.488;13.436;2022-10-31T03:11:31;3.33;;;3.03;;
11238;SDS011;5677;48.488;13.436;2022-10-31T03:14:06;5.03;;;3.50;;
11238;SDS011;5677;48.488;13.436;2022-10-31T03:16:38;3.97;;;3.27;;
11238;SDS011;5677;48.488;13.436;2022-10-31T03:19:13;3.80;;;3.10;;
11238;SDS011;5677;48.488;13.436;2022-10-31T03:21:43;3.77;;;3.17;;
11238;SDS011;5677;48.488;13.436;2022-10-31T03:24:13;3.63;;;3.13;;
11238;SDS011;5677;48.488;13.436;2022-10-31T03:26:42;4.33;;;3.53;;
11238;SDS011;5677;48.488;13.436;2022-10-31T03:29:14;4.73;;;3.60;;
11238;SDS011;5677;48.488;13.436;2022-10-31T03:31:45;4.00;;;3.53;;
11238;SDS011;5677;48.488;13.436;2022-10-31T03:34:17;3.43;;;2.97;;
11238;SDS011;5677;48.488;13.436;2022-10-31T03:36:46;4.10;;;3.07;;
11238;SDS011;5677;48.488;13.436;2022-10-31T03:39:15;3.53;;;2.93;;
11238;SDS011;5677;48.488;13.436;2022-10-31T03:41:44;3.03;;;2.70;;
11238;SDS011;5677;48.488;13.436;2022-10-31T03:44:14;4.17;;;3.70;;
11238;SDS011;5677;48.488;13.436;2022-10-31T03:46:45;3.00;;;2.73;;
11238;SDS011;5677;48.488;13.436;2022-10-31T03:49:12;3.80;;;3.30;;
11238;SDS011;5677;48.488;13.436;2022-10-31T03:51:42;4.40;;;3.47;;
11238;SDS011;5677;48.488;13.436;2022-10-31T03:54:15;3.30;;;3.00;;
11238;SDS011;5677;48.488;13.436;2022-10-31T03:56:48;3.93;;;3.10;;
11238;SDS011;5677;48.488;13.436;2022-10-31T03:59:19;3.17;;;2.87;;
11238;SDS011;5677;48.488;13.436;2022-10-31T04:01:51;4.27;;;3.33;;
11238;SDS011;5677;48.488;13.436;2022-10-31T04:04:23;3.17;;;2.87;;
11238;SDS011;5677;48.488;13.436;2022-10-31T04:06:52;4.47;;;3.53;;
11238;SDS011;5677;48.488;13.436;2022-10-31T04:09:22;3.67;;;3.10;;
11238;SDS011;5677;48.488;13.436;2022-10-31T04:11:52;3.13;;;2.90;;
11238;SDS011;5677;48.488;13.436;2022-10-31T04:14:20;3.23;;;2.93;;
11238;SDS011;5677;48.488;13.436;2022-10-31T04:16:49;3.40;;;3.10;;
11238;SDS011;5677;48.488;13.436;2022-10-31T04:19:16;3.37;;;3.07;;
11238;SDS011;5677;48.488;13.436;2022-10-31T04:21:43;3.03;;;2.73;;
11238;SDS011;5677;48.488;13.436;2022-10-31T04:24:11;3.20;;;2.90;;
11238;SDS011;5677;48.488;13.436;2022-10-31T04:26:38;3.10;;;2.90;;
11238;SDS011;5677;48.488;13.436;2022-10-31T04:29:05;3.50;;;3.00;;
11238;SDS011;5677;48.488;13.436;2022-10-31T04:31:31;2.93;;;2.63;;
11238;SDS011;5677;48.488;13.436;2022-10-31T04:33:58;3.30;;;3.00;;
11238;SDS011;5677;48.488;13.436;2022-10-31T04:36:25;4.17;;;3.07;;
11238;SDS011;5677;48.488;13.436;2022-10-31T04:38:52;2.90;;;2.70;;
11238;SDS011;5677;48.488;13.436;2022-10-31T04:41:20;3.67;;;2.93;;
11238;SDS011;5677;48.488;13.436;2022-10-31T04:43:47;2.93;;;2.63;;
11238;SDS011;5677;48.488;13.436;2022-10-31T04:46:13;2.80;;;2.60;;
11238;SDS011;5677;48.488;13.436;2022-10-31T04:48:40;3.33;;;2.77;;
11238;SDS011;5677;48.488;13.436;2022-10-31T04:51:07;3.20;;;2.80;;
11238;SDS011;5677;48.488;13.436;2022-10-31T04:53:34;3.00;;;2.60;;
11238;SDS011;5677;48.488;13.436;2022-10-31T04:56:00;2.93;;;2.73;;
11238;SDS011;5677;48.488;13.436;2022-10-31T04:58:29;3.20;;;2.90;;
11238;SDS011;5677;48.488;13.436;2022-10-31T05:00:55;3.10;;;2.80;;
11238;SDS011;5677;48.488;13.436;2022-10-31T05:03:23;3.07;;;2.60;;
11238;SDS011;5677;48.488;13.436;2022-10-31T05:05:50;3.00;;;2.63;;
11238;SDS011;5677;48.488;13.436;2022-10-31T05:08:16;2.83;;;2.63;;
11238;SDS011;5677;48.488;13.436;2022-10-31T05:10:43;3.70;;;2.87;;
11238;SDS011;5677;48.488;13.436;2022-10-31T05:13:10;2.53;;;2.33;;
11238;SDS011;5677;48.488;13.436;2022-10-31T05:15:38;3.43;;;2.90;;
11238;SDS011;5677;48.488;13.436;2022-10-31T05:18:05;2.73;;;2.50;;
11238;SDS011;5677;48.488;13.436;2022-10-31T05:20:31;3.63;;;2.80;;
11238;SDS011;5677;48.488;13.436;2022-10-31T05:22:59;3.50;;;2.80;;
11238;SDS011;5677;48.488;13.436;2022-10-31T05:25:27;2.83;;;2.63;;
11238;SDS011;5677;48.488;13.436;2022-10-31T05:27:54;2.70;;;2.50;;
11238;SDS011;5677;48.488;13.436;2022-10-31T05:30:23;2.63;;;2.43;;
11238;SDS011;5677;48.488;13.436;2022-10-31T05:32:52;4.43;;;2.43;;
11238;SDS011;5677;48.488;13.436;2022-10-31T05:35:19;3.10;;;2.47;;
11238;SDS011;5677;48.488;13.436;2022-10-31T05:37:48;3.47;;;2.80;;
11238;SDS011;5677;48.488;13.436;2022-10-31T05:40:15;3.00;;;2.50;;
11238;SDS011;5677;48.488;13.436;2022-10-31T05:42:43;2.70;;;2.50;;
11238;SDS011;5677;48.488;13.436;2022-10-31T05:45:12;2.60;;;2.30;;
11238;SDS011;5677;48.488;13.436;2022-10-31T05:47:39;3.17;;;2.53;;
11238;SDS011;5677;48.488;13.436;2022-10-31T05:50:08;3.43;;;2.90;;
11238;SDS011;5677;48.488;13.436;2022-10-31T05:52:36;3.80;;;2.53;;
11238;SDS011;5677;48.488;13.436;2022-10-31T05:55:03;2.60;;;2.40;;
11238;SDS011;5677;48.488;13.436;2022-10-31T05:57:31;4.63;;;2.90;;
11238;SDS011;5677;48.488;13.436;2022-10-31T05:59:58;3.63;;;2.90;;
11238;SDS011;5677;48.488;13.436;2022-10-31T06:02:25;2.97;;;2.63;;
11238;SDS011;5677;48.488;13.436;2022-10-31T06:04:56;2.80;;;2.60;;
11238;SDS011;5677;48.488;13.436;2022-10-31T06:07:24;2.97;;;2.77;;
11238;SDS011;5677;48.488;13.436;2022-10-31T06:09:53;2.60;;;2.40;;
11238;SDS011;5677;48.488;13.436;2022-10-31T06:12:19;2.80;;;2.60;;
11238;SDS011;5677;48.488;13.436;2022-10-31T06:14:46;2.70;;;2.50;;
11238;SDS011;5677;48.488;13.436;2022-10-31T06:17:13;3.17;;;2.20;;
11238;SDS011;5677;48.488;13.436;2022-10-31T06:19:40;4.03;;;2.23;;
11238;SDS011;5677;48.488;13.436;2022-10-31T06:22:06;9.47;;;3.27;;
11238;SDS011;5677;48.488;13.436;2022-10-31T06:24:35;4.80;;;2.83;;
11238;SDS011;5677;48.488;13.436;2022-10-31T06:27:01;4.57;;;2.57;;
11238;SDS011;5677;48.488;13.436;2022-10-31T06:29:28;4.63;;;2.50;;
11238;SDS011;5677;48.488;13.436;2022-10-31T06:31:55;5.13;;;2.47;;
11238;SDS011;5677;48.488;13.436;2022-10-31T06:34:22;3.27;;;2.20;;
11238;SDS011;5677;48.488;13.436;2022-10-31T06:36:49;3.13;;;2.60;;
11238;SDS011;5677;48.488;13.436;2022-10-31T06:39:15;5.70;;;2.70;;
11238;SDS011;5677;48.488;13.436;2022-10-31T06:41:43;2.40;;;2.20;;
11238;SDS011;5677;48.488;13.436;2022-10-31T06:44:12;2.70;;;2.50;;
11238;SDS011;5677;48.488;13.436;2022-10-31T06:46:39;2.63;;;2.43;;
11238;SDS011;5677;48.488;13.436;2022-10-31T06:49:06;2.70;;;2.30;;
11238;SDS011;5677;48.488;13.436;2022-10-31T06:51:33;4.13;;;2.37;;
11238;SDS011;5677;48.488;13.436;2022-10-31T06:54:00;2.50;;;2.10;;
11238;SDS011;5677;48.488;13.436;2022-10-31T06:56:28;2.70;;;2.43;;
11238;SDS011;5677;48.488;13.436;2022-10-31T06:59:00;3.83;;;2.43;;
11238;SDS011;5677;48.488;13.436;2022-10-31T07:01:27;2.67;;;2.47;;
11238;SDS011;5677;48.488;13.436;2022-10-31T07:03:54;3.63;;;2.43;;
11238;SDS011;5677;48.488;13.436;2022-10-31T07:06:21;4.13;;;2.43;;
11238;SDS011;5677;48.488;13.436;2022-10-31T07:08:48;5.87;;;2.73;;
11238;SDS011;5677;48.488;13.436;2022-10-31T07:11:15;4.37;;;2.40;;
11238;SDS011;5677;48.488;13.436;2022-10-31T07:13:42;3.37;;;2.37;;
11238;SDS011;5677;48.488;13.436;2022-10-31T07:16:10;4.20;;;2.50;;
11238;SDS011;5677;48.488;13.436;2022-10-31T07:18:38;2.57;;;2.30;;
11238;SDS011;5677;48.488;13.436;2022-10-31T07:21:05;3.63;;;2.50;;
11238;SDS011;5677;48.488;13.436;2022-10-31T07:23:32;2.93;;;2.07;;
11238;SDS011;5677;48.488;13.436;2022-10-31T07:25:59;2.77;;;2.43;;
11238;SDS011;5677;48.488;13.436;2022-10-31T07:28:26;3.67;;;2.20;;
11238;SDS011;5677;48.488;13.436;2022-10-31T07:30:54;3.10;;;2.40;;
11238;SDS011;5677;48.488;13.436;2022-10-31T07:33:24;4.70;;;2.20;;
11238;SDS011;5677;48.488;13.436;2022-10-31T07:35:52;2.50;;;2.30;;
11238;SDS011;5677;48.488;13.436;2022-10-31T07:38:19;3.13;;;2.33;;
11238;SDS011;5677;48.488;13.436;2022-10-31T07:40:49;2.70;;;2.40;;
11238;SDS011;5677;48.488;13.436;2022-10-31T07:43:17;4.27;;;2.30;;
11238;SDS011;5677;48.488;13.436;2022-10-31T07:45:48;5.10;;;2.50;;
11238;SDS011;5677;48.488;13.436;2022-10-31T07:48:16;2.87;;;2.67;;
11238;SDS011;5677;48.488;13.436;2022-10-31T07:50:44;4.23;;;2.90;;
11238;SDS011;5677;48.488;13.436;2022-10-31T07:53:11;4.50;;;2.93;;
11238;SDS011;5677;48.488;13.436;2022-10-31T07:55:39;6.53;;;2.63;;
11238;SDS011;5677;48.488;13.436;2022-10-31T07:58:07;5.27;;;2.97;;
11238;SDS011;5677;48.488;13.436;2022-10-31T08:00:35;4.67;;;3.00;;
11238;SDS011;5677;48.488;13.436;2022-10-31T08:03:04;4.13;;;2.70;;
11238;SDS011;5677;48.488;13.436;2022-10-31T08:05:33;3.27;;;2.97;;
11238;SDS011;5677;48.488;13.436;2022-10-31T08:08:01;3.00;;;2.63;;
11238;SDS011;5677;48.488;13.436;2022-10-31T08:10:28;4.57;;;2.57;;
11238;SDS011;5677;48.488;13.436;2022-10-31T08:12:56;5.03;;;4.00;;
11238;SDS011;5677;48.488;13.436;2022-10-31T08:15:24;4.43;;;3.50;;
11238;SDS011;5677;48.488;13.436;2022-10-31T08:17:51;7.73;;;3.90;;
11238;SDS011;5677;48.488;13.436;2022-10-31T08:20:18;4.70;;;3.43;;
11238;SDS011;5677;48.488;13.436;2022-10-31T08:22:52;5.07;;;3.20;;
11238;SDS011;5677;48.488;13.436;2022-10-31T08:25:24;5.17;;;3.00;;
11238;SDS011;5677;48.488;13.436;2022-10-31T08:27:54;3.40;;;3.10;;
11238;SDS011;5677;48.488;13.436;2022-10-31T08:30:22;4.37;;;2.90;;
11238;SDS011;5677;48.488;13.436;2022-10-31T08:32:56;5.20;;;3.27;;
11238;SDS011;5677;48.488;13.436;2022-10-31T08:35:25;4.47;;;3.30;;
11238;SDS011;5677;48.488;13.436;2022-10-31T08:37:52;5.53;;;3.50;;
11238;SDS011;5677;48.488;13.436;2022-10-31T08:40:19;3.80;;;3.50;;
11238;SDS011;5677;48.488;13.436;2022-10-31T08:42:54;8.47;;;3.70;;
11238;SDS011;5677;48.488;13.436;2022-10-31T08:45:22;10.27;;;3.60;;
11238;SDS011;5677;48.488;13.436;2022-10-31T08:47:49;7.57;;;3.20;;
11238;SDS011;5677;48.488;13.436;2022-10-31T08:50:15;5.67;;;3.50;;
11238;SDS011;5677;48.488;13.436;2022-10-31T08:52:43;8.33;;;3.00;;
11238;SDS011;5677;48.488;13.436;2022-10-31T08:55:09;8.77;;;3.37;;
11238;SDS011;5677;48.488;13.436;2022-10-31T08:57:36;5.07;;;2.90;;
11238;SDS011;5677;48.488;13.436;2022-10-31T09:00:05;4.10;;;3.00;;
11238;SDS011;5677;48.488;13.436;2022-10-31T09:02:33;3.20;;;2.90;;
11238;SDS011;5677;48.488;13.436;2022-10-31T09:04:59;5.00;;;2.67;;
11238;SDS011;5677;48.488;13.436;2022-10-31T09:07:26;3.87;;;2.80;;
11238;SDS011;5677;48.488;13.436;2022-10-31T09:09:53;4.67;;;2.70;;
11238;SDS011;5677;48.488;13.436;2022-10-31T09:12:20;3.47;;;2.83;;
11238;SDS011;5677;48.488;13.436;2022-10-31T09:14:48;5.87;;;2.97;;
11238;SDS011;5677;48.488;13.436;2022-10-31T09:17:17;4.17;;;2.80;;
11238;SDS011;5677;48.488;13.436;2022-10-31T09:19:43;3.53;;;3.00;;
11238;SDS011;5677;48.488;13.436;2022-10-31T09:22:10;5.70;;;3.00;;
11238;SDS011;5677;48.488;13.436;2022-10-31T09:24:37;3.20;;;2.60;;
11238;SDS011;5677;48.488;13.436;2022-10-31T09:27:04;4.93;;;2.50;;
11238;SDS011;5677;48.488;13.436;2022-10-31T09:29:30;3.00;;;2.70;;
11238;SDS011;5677;48.488;13.436;2022-10-31T09:31:57;3.03;;;2.33;;
11238;SDS011;5677;48.488;13.436;2022-10-31T09:34:25;2.50;;;2.30;;
11238;SDS011;5677;48.488;13.436;2022-10-31T09:36:52;3.97;;;2.43;;
11238;SDS011;5677;48.488;13.436;2022-10-31T09:39:19;2.87;;;2.57;;
11238;SDS011;5677;48.488;13.436;2022-10-31T09:44:33;3.67;;;2.33;;
11238;SDS011;5677;48.488;13.436;2022-10-31T09:47:09;4.70;;;2.70;;
11238;SDS011;5677;48.488;13.436;2022-10-31T09:49:51;5.60;;;2.70;;
11238;SDS011;5677;48.488;13.436;2022-10-31T09:52:27;4.57;;;2.77;;
11238;SDS011;5677;48.488;13.436;2022-10-31T09:54:58;3.37;;;2.47;;
11238;SDS011;5677;48.488;13.436;2022-10-31T09:57:29;2.70;;;2.40;;
11238;SDS011;5677;48.488;13.436;2022-10-31T10:00:03;3.53;;;2.43;;
11238;SDS011;5677;48.488;13.436;2022-10-31T10:02:30;3.07;;;2.50;;
11238;SDS011;5677;48.488;13.436;2022-10-31T10:05:05;4.27;;;2.80;;
11238;SDS011;5677;48.488;13.436;2022-10-31T10:07:39;4.23;;;2.57;;
11238;SDS011;5677;48.488;13.436;2022-10-31T10:10:13;3.43;;;2.70;;
11238;SDS011;5677;48.488;13.436;2022-10-31T10:12:57;3.00;;;2.60;;
11238;SDS011;5677;48.488;13.436;2022-10-31T10:18:25;3.33;;;2.40;;
11238;SDS011;5677;48.488;13.436;2022-10-31T10:21:09;2.97;;;2.67;;
11238;SDS011;5677;48.488;13.436;2022-10-31T10:23:51;3.13;;;2.17;;
11238;SDS011;5677;48.488;13.436;2022-10-31T10:26:29;3.07;;;2.43;;
11238;SDS011;5677;48.488;13.436;2022-10-31T10:29:01;3.77;;;2.67;;
11238;SDS011;5677;48.488;13.436;2022-10-31T10:31:44;2.73;;;2.30;;
11238;SDS011;5677;48.488;13.436;2022-10-31T10:34:13;2.53;;;2.33;;
11238;SDS011;5677;48.488;13.436;2022-10-31T10:36:47;5.00;;;2.60;;
11238;SDS011;5677;48.488;13.436;2022-10-31T10:39:20;3.07;;;2.77;;
11238;SDS011;5677;48.488;13.436;2022-10-31T10:41:51;3.50;;;2.50;;
11238;SDS011;5677;48.488;13.436;2022-10-31T10:44:36;2.60;;;2.27;;
11238;SDS011;5677;48.488;13.436;2022-10-31T10:47:23;2.70;;;2.50;;
11238;SDS011;5677;48.488;13.436;2022-10-31T10:50:03;4.43;;;3.87;;
11238;SDS011;5677;48.488;13.436;2022-10-31T10:52:37;8.43;;;5.57;;
11238;SDS011;5677;48.488;13.436;2022-10-31T10:55:13;7.03;;;4.60;;
11238;SDS011;5677;48.488;13.436;2022-10-31T10:57:51;5.03;;;4.47;;
11238;SDS011;5677;48.488;13.436;2022-10-31T11:00:22;8.23;;;6.13;;
11238;SDS011;5677;48.488;13.436;2022-10-31T11:02:50;5.73;;;5.23;;
11238;SDS011;5677;48.488;13.436;2022-10-31T11:05:21;10.07;;;5.63;;
11238;SDS011;5677;48.488;13.436;2022-10-31T11:07:56;7.27;;;5.10;;
11238;SDS011;5677;48.488;13.436;2022-10-31T11:10:22;9.33;;;5.67;;
11238;SDS011;5677;48.488;13.436;2022-10-31T11:15:53;6.97;;;4.37;;
11238;SDS011;5677;48.488;13.436;2022-10-31T11:18:27;6.27;;;4.43;;
11238;SDS011;5677;48.488;13.436;2022-10-31T11:20:56;5.77;;;4.23;;
11238;SDS011;5677;48.488;13.436;2022-10-31T11:23:28;8.43;;;4.27;;
11238;SDS011;5677;48.488;13.436;2022-10-31T11:25:56;7.00;;;4.30;;
11238;SDS011;5677;48.488;13.436;2022-10-31T11:28:25;13.77;;;4.47;;
11238;SDS011;5677;48.488;13.436;2022-10-31T11:30:54;9.27;;;4.67;;
11238;SDS011;5677;48.488;13.436;2022-10-31T11:33:26;9.30;;;4.40;;
11238;SDS011;5677;48.488;13.436;2022-10-31T11:35:55;8.00;;;4.10;;
11238;SDS011;5677;48.488;13.436;2022-10-31T11:38:23;9.97;;;3.97;;
11238;SDS011;5677;48.488;13.436;2022-10-31T11:40:56;6.43;;;4.17;;
11238;SDS011;5677;48.488;13.436;2022-10-31T11:43:24;4.80;;;4.30;;
11238;SDS011;5677;48.488;13.436;2022-10-31T11:45:52;8.60;;;4.37;;
11238;SDS011;5677;48.488;13.436;2022-10-31T11:48:20;5.47;;;4.30;;
11238;SDS011;5677;48.488;13.436;2022-10-31T11:50:49;4.57;;;3.90;;
11238;SDS011;5677;48.488;13.436;2022-10-31T11:53:22;8.27;;;4.27;;
11238;SDS011;5677;48.488;13.436;2022-10-31T11:56:05;5.03;;;4.33;;
11238;SDS011;5677;48.488;13.436;2022-10-31T11:58:36;6.47;;;4.30;;
11238;SDS011;5677;48.488;13.436;2022-10-31T12:01:03;7.33;;;5.10;;
11238;SDS011;5677;48.488;13.436;2022-10-31T12:03:33;6.17;;;4.90;;
11238;SDS011;5677;48.488;13.436;2022-10-31T12:06:10;6.03;;;4.47;;
11238;SDS011;5677;48.488;13.436;2022-10-31T12:08:42;5.30;;;4.40;;
11238;SDS011;5677;48.488;13.436;2022-10-31T12:11:15;7.07;;;4.87;;
11238;SDS011;5677;48.488;13.436;2022-10-31T12:13:57;4.93;;;4.43;;
11238;SDS011;5677;48.488;13.436;2022-10-31T12:16:34;4.37;;;3.97;;
11238;SDS011;5677;48.488;13.436;2022-10-31T12:19:08;6.90;;;5.07;;
11238;SDS011;5677;48.488;13.436;2022-10-31T12:21:49;9.13;;;5.57;;
11238;SDS011;5677;48.488;13.436;2022-10-31T12:24:32;10.17;;;5.43;;
11238;SDS011;5677;48.488;13.436;2022-10-31T12:27:13;9.17;;;5.90;;
11238;SDS011;5677;48.488;13.436;2022-10-31T12:29:50;8.63;;;5.73;;
11238;SDS011;5677;48.488;13.436;2022-10-31T12:32:30;7.33;;;5.07;;
11238;SDS011;5677;48.488;13.436;2022-10-31T12:37:58;9.33;;;4.93;;
11238;SDS011;5677;48.488;13.436;2022-10-31T12:40:41;10.47;;;4.87;;
11238;SDS011;5677;48.488;13.436;2022-10-31T12:43:20;9.43;;;5.20;;
11238;SDS011;5677;48.488;13.436;2022-10-31T12:45:59;8.97;;;5.10;;
11238;SDS011;5677;48.488;13.436;2022-10-31T12:48:46;7.00;;;5.80;;
11238;SDS011;5677;48.488;13.436;2022-10-31T12:51:27;12.00;;;5.37;;
11238;SDS011;5677;48.488;13.436;2022-10-31T12:54:08;8.00;;;5.30;;
11238;SDS011;5677;48.488;13.436;2022-10-31T12:56:50;8.80;;;5.20;;
11238;SDS011;5677;48.488;13.436;2022-10-31T12:59:27;8.97;;;5.10;;
11238;SDS011;5677;48.488;13.436;2022-10-31T13:01:58;10.60;;;5.33;;
11238;SDS011;5677;48.488;13.436;2022-10-31T13:04:35;9.47;;;5.00;;
11238;SDS011;5677;48.488;13.436;2022-10-31T13:07:08;6.57;;;4.80;;
11238;SDS011;5677;48.488;13.436;2022-10-31T13:09:40;11.27;;;5.00;;
11238;SDS011;5677;48.488;13.436;2022-10-31T13:12:12;7.07;;;5.30;;
11238;SDS011;5677;48.488;13.436;2022-10-31T13:14:43;7.13;;;5.27;;
11238;SDS011;5677;48.488;13.436;2022-10-31T13:17:15;6.97;;;4.40;;
11238;SDS011;5677;48.488;13.436;2022-10-31T13:19:47;7.43;;;4.97;;
11238;SDS011;5677;48.488;13.436;2022-10-31T13:22:17;6.87;;;4.70;;
11238;SDS011;5677;48.488;13.436;2022-10-31T13:24:50;6.97;;;4.57;;
11238;SDS011;5677;48.488;13.436;2022-10-31T13:27:23;8.43;;;4.83;;
11238;SDS011;5677;48.488;13.436;2022-10-31T13:29:56;9.30;;;4.40;;
11238;SDS011;5677;48.488;13.436;2022-10-31T13:32:28;9.23;;;4.70;;
11238;SDS011;5677;48.488;13.436;2022-10-31T13:35:03;7.77;;;5.00;;
11238;SDS011;5677;48.488;13.436;2022-10-31T13:37:37;7.13;;;4.73;;
11238;SDS011;5677;48.488;13.436;2022-10-31T13:40:12;6.43;;;4.50;;
11238;SDS011;5677;48.488;13.436;2022-10-31T13:42:51;8.27;;;4.70;;
11238;SDS011;5677;48.488;13.436;2022-10-31T13:45:26;7.33;;;4.50;;
11238;SDS011;5677;48.488;13.436;2022-10-31T13:47:59;5.07;;;4.57;;
11238;SDS011;5677;48.488;13.436;2022-10-31T13:50:28;8.10;;;4.40;;
11238;SDS011;5677;48.488;13.436;2022-10-31T13:53:19;7.07;;;5.10;;
11238;SDS011;5677;48.488;13.436;2022-10-31T13:55:48;6.27;;;4.60;;
11238;SDS011;5677;48.488;13.436;2022-10-31T13:58:26;6.60;;;4.90;;
11238;SDS011;5677;48.488;13.436;2022-10-31T14:00:59;8.30;;;4.70;;
11238;SDS011;5677;48.488;13.436;2022-10-31T14:03:41;6.13;;;4.50;;
11238;SDS011;5677;48.488;13.436;2022-10-31T14:06:10;6.73;;;4.50;;
11238;SDS011;5677;48.488;13.436;2022-10-31T14:08:39;6.53;;;4.97;;
11238;SDS011;5677;48.488;13.436;2022-10-31T14:11:16;5.10;;;4.50;;
11238;SDS011;5677;48.488;13.436;2022-10-31T14:13:50;5.40;;;4.60;;
11238;SDS011;5677;48.488;13.436;2022-10-31T14:16:19;5.97;;;4.17;;
11238;SDS011;5677;48.488;13.436;2022-10-31T14:18:50;5.80;;;4.43;;
11238;SDS011;5677;48.488;13.436;2022-10-31T14:21:26;6.47;;;4.70;;
11238;SDS011;5677;48.488;13.436;2022-10-31T14:23:55;5.03;;;4.47;;
11238;SDS011;5677;48.488;13.436;2022-10-31T14:29:22;6.00;;;4.53;;
11238;SDS011;5677;48.488;13.436;2022-10-31T14:31:55;5.70;;;4.40;;
11238;SDS011;5677;48.488;13.436;2022-10-31T14:34:36;5.50;;;4.47;;
11238;SDS011;5677;48.488;13.436;2022-10-31T14:37:13;7.77;;;4.50;;
11238;SDS011;5677;48.488;13.436;2022-10-31T14:39:54;4.90;;;4.20;;
11238;SDS011;5677;48.488;13.436;2022-10-31T14:42:37;4.53;;;4.00;;
11238;SDS011;5677;48.488;13.436;2022-10-31T14:45:17;4.80;;;4.27;;
11238;SDS011;5677;48.488;13.436;2022-10-31T14:47:56;6.03;;;4.33;;
11238;SDS011;5677;48.488;13.436;2022-10-31T14:50:37;6.70;;;4.87;;
11238;SDS011;5677;48.488;13.436;2022-10-31T14:53:12;6.03;;;4.50;;
11238;SDS011;5677;48.488;13.436;2022-10-31T14:55:45;5.77;;;4.50;;
11238;SDS011;5677;48.488;13.436;2022-10-31T14:58:16;5.90;;;4.40;;
11238;SDS011;5677;48.488;13.436;2022-10-31T15:00:46;4.80;;;4.00;;
11238;SDS011;5677;48.488;13.436;2022-10-31T15:03:16;6.10;;;4.20;;
11238;SDS011;5677;48.488;13.436;2022-10-31T15:05:48;4.80;;;4.33;;
11238;SDS011;5677;48.488;13.436;2022-10-31T15:08:27;5.10;;;4.60;;
11238;SDS011;5677;48.488;13.436;2022-10-31T15:10:58;5.17;;;4.43;;
11238;SDS011;5677;48.488;13.436;2022-10-31T15:13:28;7.63;;;4.60;;
11238;SDS011;5677;48.488;13.436;2022-10-31T15:15:55;7.40;;;4.33;;
11238;SDS011;5677;48.488;13.436;2022-10-31T15:18:24;6.03;;;4.63;;
11238;SDS011;5677;48.488;13.436;2022-10-31T15:20:53;6.90;;;4.90;;
11238;SDS011;5677;48.488;13.436;2022-10-31T15:23:21;5.17;;;4.53;;
11238;SDS011;5677;48.488;13.436;2022-10-31T15:25:50;8.17;;;4.50;;